sensor_id;sensor_type;location;lat;lon;timestamp;temperature;humidity
48376;DHT22;34178;50.904;11.560;2023-09-07T00:01:49;13.40;99.90
48376;DHT22;34178;50.904;11.560;2023-09-07T00:04:21;13.40;99.90
48376;DHT22;34178;50.904;11.560;2023-09-07T00:06:49;13.40;99.90
48376;DHT22;34178;50.904;11.560;2023-09-07T00:09:16;13.40;99.90
48376;DHT22;34178;50.904;11.560;2023-09-07T00:11:44;13.40;99.90
48376;DHT22;34178;50.904;11.560;2023-09-07T00:14:10;13.40;99.90
48376;DHT22;34178;50.904;11.560;2023-09-07T00:16:36;13.40;99.90
48376;DHT22;34178;50.904;11.560;2023-09-07T00:19:06;13.40;99.90
48376;DHT22;34178;50.904;11.560;2023-09-07T00:21:32;13.30;99.90
48376;DHT22;34178;50.904;11.560;2023-09-07T00:23:58;13.20;99.90
48376;DHT22;34178;50.904;11.560;2023-09-07T00:26:23;13.20;99.90
48376;DHT22;34178;50.904;11.560;2023-09-07T00:28:49;13.20;99.90
48376;DHT22;34178;50.904;11.560;2023-09-07T00:31:15;13.10;99.90
48376;DHT22;34178;50.904;11.560;2023-09-07T00:33:40;13.00;99.90
48376;DHT22;34178;50.904;11.560;2023-09-07T00:36:06;12.90;99.90
48376;DHT22;34178;50.904;11.560;2023-09-07T00:38:32;12.90;99.90
48376;DHT22;34178;50.904;11.560;2023-09-07T00:40:57;12.90;99.90
48376;DHT22;34178;50.904;11.560;2023-09-07T00:43:23;12.90;99.90
48376;DHT22;34178;50.904;11.560;2023-09-07T00:45:49;12.80;99.90
48376;DHT22;34178;50.904;11.560;2023-09-07T00:48:15;12.70;99.90
48376;DHT22;34178;50.904;11.560;2023-09-07T00:50:42;12.70;99.90
48376;DHT22;34178;50.904;11.560;2023-09-07T00:53:09;12.70;99.90
48376;DHT22;34178;50.904;11.560;2023-09-07T00:55:36;12.70;99.90
48376;DHT22;34178;50.904;11.560;2023-09-07T00:58:03;12.70;99.90
48376;DHT22;34178;50.904;11.560;2023-09-07T01:00:29;12.70;99.90
48376;DHT22;34178;50.904;11.560;2023-09-07T01:02:55;12.60;99.90
48376;DHT22;34178;50.904;11.560;2023-09-07T01:05:34;12.60;99.90
48376;DHT22;34178;50.904;11.560;2023-09-07T01:08:10;12.60;99.90
48376;DHT22;34178;50.904;11.560;2023-09-07T01:10:37;12.60;99.90
48376;DHT22;34178;50.904;11.560;2023-09-07T01:13:03;12.60;99.90
48376;DHT22;34178;50.904;11.560;2023-09-07T01:15:28;12.60;99.90
48376;DHT22;34178;50.904;11.560;2023-09-07T01:17:55;12.60;99.90
48376;DHT22;34178;50.904;11.560;2023-09-07T01:20:23;12.50;99.90
48376;DHT22;34178;50.904;11.560;2023-09-07T01:22:50;12.50;99.90
48376;DHT22;34178;50.904;11.560;2023-09-07T01:25:16;12.50;99.90
48376;DHT22;34178;50.904;11.560;2023-09-07T01:27:42;12.50;99.90
48376;DHT22;34178;50.904;11.560;2023-09-07T01:30:08;12.40;99.90
48376;DHT22;34178;50.904;11.560;2023-09-07T01:32:34;12.40;99.90
48376;DHT22;34178;50.904;11.560;2023-09-07T01:35:01;12.40;99.90
48376;DHT22;34178;50.904;11.560;2023-09-07T01:37:28;12.40;99.90
48376;DHT22;34178;50.904;11.560;2023-09-07T01:39:54;12.30;99.90
48376;DHT22;34178;50.904;11.560;2023-09-07T01:42:20;12.30;99.90
48376;DHT22;34178;50.904;11.560;2023-09-07T01:44:47;12.30;99.90
48376;DHT22;34178;50.904;11.560;2023-09-07T01:47:13;12.30;99.90
48376;DHT22;34178;50.904;11.560;2023-09-07T01:49:38;12.30;99.90
48376;DHT22;34178;50.904;11.560;2023-09-07T01:52:04;12.20;99.90
48376;DHT22;34178;50.904;11.560;2023-09-07T01:54:30;12.20;99.90
48376;DHT22;34178;50.904;11.560;2023-09-07T01:56:56;12.20;99.90
48376;DHT22;34178;50.904;11.560;2023-09-07T01:59:22;12.20;99.90
48376;DHT22;34178;50.904;11.560;2023-09-07T02:01:48;12.30;99.90
48376;DHT22;34178;50.904;11.560;2023-09-07T02:04:13;12.20;99.90
48376;DHT22;34178;50.904;11.560;2023-09-07T02:06:39;12.20;99.90
48376;DHT22;34178;50.904;11.560;2023-09-07T02:09:04;12.20;99.90
48376;DHT22;34178;50.904;11.560;2023-09-07T02:11:30;12.20;99.90
48376;DHT22;34178;50.904;11.560;2023-09-07T02:13:56;12.20;99.90
48376;DHT22;34178;50.904;11.560;2023-09-07T02:16:22;12.20;99.90
48376;DHT22;34178;50.904;11.560;2023-09-07T02:18:49;12.20;99.90
48376;DHT22;34178;50.904;11.560;2023-09-07T02:21:16;12.20;99.90
48376;DHT22;34178;50.904;11.560;2023-09-07T02:23:41;12.10;99.90
48376;DHT22;34178;50.904;11.560;2023-09-07T02:26:07;12.20;99.90
48376;DHT22;34178;50.904;11.560;2023-09-07T02:28:33;12.20;99.90
48376;DHT22;34178;50.904;11.560;2023-09-07T02:31:05;12.20;99.90
48376;DHT22;34178;50.904;11.560;2023-09-07T02:33:32;12.10;99.90
48376;DHT22;34178;50.904;11.560;2023-09-07T02:35:58;12.10;99.90
48376;DHT22;34178;50.904;11.560;2023-09-07T02:38:24;12.10;99.90
48376;DHT22;34178;50.904;11.560;2023-09-07T02:40:50;12.10;99.90
48376;DHT22;34178;50.904;11.560;2023-09-07T02:43:15;12.10;99.90
48376;DHT22;34178;50.904;11.560;2023-09-07T02:45:41;12.00;99.90
48376;DHT22;34178;50.904;11.560;2023-09-07T02:48:07;12.00;99.90
48376;DHT22;34178;50.904;11.560;2023-09-07T02:50:34;12.00;99.90
48376;DHT22;34178;50.904;11.560;2023-09-07T02:53:00;11.90;99.90
48376;DHT22;34178;50.904;11.560;2023-09-07T02:55:27;11.90;99.90
48376;DHT22;34178;50.904;11.560;2023-09-07T02:57:52;11.90;99.90
48376;DHT22;34178;50.904;11.560;2023-09-07T03:00:19;11.90;99.90
48376;DHT22;34178;50.904;11.560;2023-09-07T03:02:45;11.80;99.90
48376;DHT22;34178;50.904;11.560;2023-09-07T03:05:10;11.80;99.90
48376;DHT22;34178;50.904;11.560;2023-09-07T03:07:36;11.80;99.90
48376;DHT22;34178;50.904;11.560;2023-09-07T03:10:02;11.80;99.90
48376;DHT22;34178;50.904;11.560;2023-09-07T03:12:28;11.80;99.90
48376;DHT22;34178;50.904;11.560;2023-09-07T03:14:54;11.80;99.90
48376;DHT22;34178;50.904;11.560;2023-09-07T03:17:20;11.80;99.90
48376;DHT22;34178;50.904;11.560;2023-09-07T03:19:49;11.80;99.90
48376;DHT22;34178;50.904;11.560;2023-09-07T03:22:15;11.80;99.90
48376;DHT22;34178;50.904;11.560;2023-09-07T03:24:40;11.70;99.90
48376;DHT22;34178;50.904;11.560;2023-09-07T03:27:06;11.60;99.90
48376;DHT22;34178;50.904;11.560;2023-09-07T03:29:32;11.60;99.90
48376;DHT22;34178;50.904;11.560;2023-09-07T03:31:59;11.60;99.90
48376;DHT22;34178;50.904;11.560;2023-09-07T03:34:26;11.60;99.90
48376;DHT22;34178;50.904;11.560;2023-09-07T03:36:51;11.60;99.90
48376;DHT22;34178;50.904;11.560;2023-09-07T03:39:17;11.70;99.90
48376;DHT22;34178;50.904;11.560;2023-09-07T03:41:48;11.60;99.90
48376;DHT22;34178;50.904;11.560;2023-09-07T03:44:14;11.60;99.90
48376;DHT22;34178;50.904;11.560;2023-09-07T03:46:40;11.60;99.90
48376;DHT22;34178;50.904;11.560;2023-09-07T03:49:06;11.50;99.90
48376;DHT22;34178;50.904;11.560;2023-09-07T03:51:32;11.50;99.90
48376;DHT22;34178;50.904;11.560;2023-09-07T03:53:57;11.50;99.90
48376;DHT22;34178;50.904;11.560;2023-09-07T03:56:24;11.40;99.90
48376;DHT22;34178;50.904;11.560;2023-09-07T03:58:50;11.40;99.90
48376;DHT22;34178;50.904;11.560;2023-09-07T04:01:15;11.30;99.90
48376;DHT22;34178;50.904;11.560;2023-09-07T04:03:42;11.20;99.90
48376;DHT22;34178;50.904;11.560;2023-09-07T04:06:08;11.20;99.90
48376;DHT22;34178;50.904;11.560;2023-09-07T04:08:34;11.20;99.90
48376;DHT22;34178;50.904;11.560;2023-09-07T04:11:04;11.20;99.90
48376;DHT22;34178;50.904;11.560;2023-09-07T04:13:30;11.20;99.90
48376;DHT22;34178;50.904;11.560;2023-09-07T04:15:56;11.20;99.90
48376;DHT22;34178;50.904;11.560;2023-09-07T04:18:22;11.10;99.90
48376;DHT22;34178;50.904;11.560;2023-09-07T04:20:47;11.20;99.90
48376;DHT22;34178;50.904;11.560;2023-09-07T04:23:13;11.20;99.90
48376;DHT22;34178;50.904;11.560;2023-09-07T04:25:38;11.10;99.90
48376;DHT22;34178;50.904;11.560;2023-09-07T04:28:07;11.10;99.90
48376;DHT22;34178;50.904;11.560;2023-09-07T04:30:37;11.10;99.90
48376;DHT22;34178;50.904;11.560;2023-09-07T04:33:03;11.10;99.90
48376;DHT22;34178;50.904;11.560;2023-09-07T04:35:30;11.10;99.90
48376;DHT22;34178;50.904;11.560;2023-09-07T04:37:56;11.10;99.90
48376;DHT22;34178;50.904;11.560;2023-09-07T04:40:22;11.20;99.90
48376;DHT22;34178;50.904;11.560;2023-09-07T04:42:48;11.10;99.90
48376;DHT22;34178;50.904;11.560;2023-09-07T04:45:14;11.10;99.90
48376;DHT22;34178;50.904;11.560;2023-09-07T04:47:39;11.10;99.90
48376;DHT22;34178;50.904;11.560;2023-09-07T04:50:05;11.10;99.90
48376;DHT22;34178;50.904;11.560;2023-09-07T04:52:32;11.10;99.90
48376;DHT22;34178;50.904;11.560;2023-09-07T04:54:57;11.10;99.90
48376;DHT22;34178;50.904;11.560;2023-09-07T04:57:23;11.10;99.90
48376;DHT22;34178;50.904;11.560;2023-09-07T04:59:49;11.20;99.90
48376;DHT22;34178;50.904;11.560;2023-09-07T05:02:15;11.20;99.90
48376;DHT22;34178;50.904;11.560;2023-09-07T05:04:40;11.20;99.90
48376;DHT22;34178;50.904;11.560;2023-09-07T05:07:12;11.20;99.90
48376;DHT22;34178;50.904;11.560;2023-09-07T05:09:38;11.20;99.90
48376;DHT22;34178;50.904;11.560;2023-09-07T05:12:03;11.20;99.90
48376;DHT22;34178;50.904;11.560;2023-09-07T05:14:29;11.20;99.90
48376;DHT22;34178;50.904;11.560;2023-09-07T05:16:55;11.20;99.90
48376;DHT22;34178;50.904;11.560;2023-09-07T05:19:22;11.30;99.90
48376;DHT22;34178;50.904;11.560;2023-09-07T05:21:48;11.30;99.90
48376;DHT22;34178;50.904;11.560;2023-09-07T05:24:14;11.40;99.90
48376;DHT22;34178;50.904;11.560;2023-09-07T05:26:41;11.40;99.90
48376;DHT22;34178;50.904;11.560;2023-09-07T05:29:07;11.50;99.90
48376;DHT22;34178;50.904;11.560;2023-09-07T05:31:33;11.50;99.90
48376;DHT22;34178;50.904;11.560;2023-09-07T05:33:59;11.60;99.90
48376;DHT22;34178;50.904;11.560;2023-09-07T05:36:26;11.70;99.90
48376;DHT22;34178;50.904;11.560;2023-09-07T05:38:52;11.70;99.90
48376;DHT22;34178;50.904;11.560;2023-09-07T05:41:18;11.80;99.90
48376;DHT22;34178;50.904;11.560;2023-09-07T05:43:44;11.80;99.90
48376;DHT22;34178;50.904;11.560;2023-09-07T05:46:09;11.90;99.90
48376;DHT22;34178;50.904;11.560;2023-09-07T05:48:35;12.00;99.90
48376;DHT22;34178;50.904;11.560;2023-09-07T05:51:01;12.10;99.90
48376;DHT22;34178;50.904;11.560;2023-09-07T05:53:26;12.20;99.90
48376;DHT22;34178;50.904;11.560;2023-09-07T05:55:52;12.30;99.90
48376;DHT22;34178;50.904;11.560;2023-09-07T05:58:18;12.40;99.90
48376;DHT22;34178;50.904;11.560;2023-09-07T06:00:44;12.40;99.90
48376;DHT22;34178;50.904;11.560;2023-09-07T06:03:10;12.50;99.90
48376;DHT22;34178;50.904;11.560;2023-09-07T06:05:36;12.60;99.90
48376;DHT22;34178;50.904;11.560;2023-09-07T06:08:04;12.70;99.90
48376;DHT22;34178;50.904;11.560;2023-09-07T06:10:31;12.80;99.90
48376;DHT22;34178;50.904;11.560;2023-09-07T06:12:57;12.90;99.90
48376;DHT22;34178;50.904;11.560;2023-09-07T06:15:24;13.00;99.90
48376;DHT22;34178;50.904;11.560;2023-09-07T06:17:49;13.10;99.90
48376;DHT22;34178;50.904;11.560;2023-09-07T06:20:15;13.20;99.90
48376;DHT22;34178;50.904;11.560;2023-09-07T06:22:41;13.30;99.90
48376;DHT22;34178;50.904;11.560;2023-09-07T06:25:07;13.40;99.90
48376;DHT22;34178;50.904;11.560;2023-09-07T06:27:33;13.50;99.90
48376;DHT22;34178;50.904;11.560;2023-09-07T06:29:59;13.60;99.90
48376;DHT22;34178;50.904;11.560;2023-09-07T06:32:24;13.70;99.90
48376;DHT22;34178;50.904;11.560;2023-09-07T06:34:50;13.80;99.90
48376;DHT22;34178;50.904;11.560;2023-09-07T06:37:16;13.80;99.90
48376;DHT22;34178;50.904;11.560;2023-09-07T06:39:42;13.90;99.90
48376;DHT22;34178;50.904;11.560;2023-09-07T06:42:10;14.00;99.90
48376;DHT22;34178;50.904;11.560;2023-09-07T06:44:36;14.10;99.90
48376;DHT22;34178;50.904;11.560;2023-09-07T06:47:02;14.20;99.90
48376;DHT22;34178;50.904;11.560;2023-09-07T06:49:27;14.20;99.90
48376;DHT22;34178;50.904;11.560;2023-09-07T06:51:55;14.30;99.90
48376;DHT22;34178;50.904;11.560;2023-09-07T06:54:21;14.40;99.90
48376;DHT22;34178;50.904;11.560;2023-09-07T06:56:47;14.50;99.90
48376;DHT22;34178;50.904;11.560;2023-09-07T06:59:13;14.50;99.90
48376;DHT22;34178;50.904;11.560;2023-09-07T07:01:39;14.60;99.90
48376;DHT22;34178;50.904;11.560;2023-09-07T07:04:05;14.70;99.90
48376;DHT22;34178;50.904;11.560;2023-09-07T07:06:30;14.80;99.90
48376;DHT22;34178;50.904;11.560;2023-09-07T07:08:56;14.90;99.90
48376;DHT22;34178;50.904;11.560;2023-09-07T07:11:22;15.00;99.90
48376;DHT22;34178;50.904;11.560;2023-09-07T07:13:47;15.10;99.90
48376;DHT22;34178;50.904;11.560;2023-09-07T07:16:13;15.20;99.90
48376;DHT22;34178;50.904;11.560;2023-09-07T07:18:39;15.20;99.90
48376;DHT22;34178;50.904;11.560;2023-09-07T07:21:05;15.40;99.90
48376;DHT22;34178;50.904;11.560;2023-09-07T07:23:31;15.40;99.90
48376;DHT22;34178;50.904;11.560;2023-09-07T07:25:57;15.50;99.90
48376;DHT22;34178;50.904;11.560;2023-09-07T07:28:22;15.60;99.90
48376;DHT22;34178;50.904;11.560;2023-09-07T07:30:48;15.70;99.90
48376;DHT22;34178;50.904;11.560;2023-09-07T07:33:14;15.80;99.90
48376;DHT22;34178;50.904;11.560;2023-09-07T07:35:39;15.80;99.90
48376;DHT22;34178;50.904;11.560;2023-09-07T07:38:05;15.90;99.90
48376;DHT22;34178;50.904;11.560;2023-09-07T07:40:33;16.10;99.90
48376;DHT22;34178;50.904;11.560;2023-09-07T07:42:59;16.20;99.90
48376;DHT22;34178;50.904;11.560;2023-09-07T07:45:25;16.30;99.90
48376;DHT22;34178;50.904;11.560;2023-09-07T07:47:51;16.40;99.90
48376;DHT22;34178;50.904;11.560;2023-09-07T07:50:17;16.50;99.90
48376;DHT22;34178;50.904;11.560;2023-09-07T07:52:43;16.50;99.90
48376;DHT22;34178;50.904;11.560;2023-09-07T07:55:10;16.60;99.90
48376;DHT22;34178;50.904;11.560;2023-09-07T07:57:36;16.70;99.90
48376;DHT22;34178;50.904;11.560;2023-09-07T08:00:03;16.80;99.90
48376;DHT22;34178;50.904;11.560;2023-09-07T08:02:30;16.90;99.90
48376;DHT22;34178;50.904;11.560;2023-09-07T08:04:56;17.00;99.90
48376;DHT22;34178;50.904;11.560;2023-09-07T08:07:22;17.00;99.90
48376;DHT22;34178;50.904;11.560;2023-09-07T08:09:48;17.10;99.90
48376;DHT22;34178;50.904;11.560;2023-09-07T08:12:13;17.20;99.90
48376;DHT22;34178;50.904;11.560;2023-09-07T08:14:39;17.30;99.90
48376;DHT22;34178;50.904;11.560;2023-09-07T08:17:05;17.40;99.90
48376;DHT22;34178;50.904;11.560;2023-09-07T08:19:30;17.40;99.90
48376;DHT22;34178;50.904;11.560;2023-09-07T08:21:57;17.50;99.90
48376;DHT22;34178;50.904;11.560;2023-09-07T08:24:23;17.60;99.90
48376;DHT22;34178;50.904;11.560;2023-09-07T08:26:49;17.80;99.90
48376;DHT22;34178;50.904;11.560;2023-09-07T08:29:20;17.90;99.90
48376;DHT22;34178;50.904;11.560;2023-09-07T08:31:52;18.00;99.90
48376;DHT22;34178;50.904;11.560;2023-09-07T08:34:17;18.10;99.90
48376;DHT22;34178;50.904;11.560;2023-09-07T08:36:46;18.20;99.90
48376;DHT22;34178;50.904;11.560;2023-09-07T08:39:13;18.30;99.90
48376;DHT22;34178;50.904;11.560;2023-09-07T08:41:39;18.40;99.90
48376;DHT22;34178;50.904;11.560;2023-09-07T08:44:21;18.50;99.90
48376;DHT22;34178;50.904;11.560;2023-09-07T08:46:50;18.60;99.90
48376;DHT22;34178;50.904;11.560;2023-09-07T08:49:17;18.70;99.90
48376;DHT22;34178;50.904;11.560;2023-09-07T08:51:46;18.70;99.90
48376;DHT22;34178;50.904;11.560;2023-09-07T08:54:12;18.80;99.90
48376;DHT22;34178;50.904;11.560;2023-09-07T08:56:38;19.00;99.90
48376;DHT22;34178;50.904;11.560;2023-09-07T08:59:04;19.10;99.90
48376;DHT22;34178;50.904;11.560;2023-09-07T09:01:32;19.20;99.90
48376;DHT22;34178;50.904;11.560;2023-09-07T09:03:59;19.40;99.90
48376;DHT22;34178;50.904;11.560;2023-09-07T09:06:25;19.50;99.90
48376;DHT22;34178;50.904;11.560;2023-09-07T09:08:53;19.50;99.90
48376;DHT22;34178;50.904;11.560;2023-09-07T09:11:20;19.60;99.90
48376;DHT22;34178;50.904;11.560;2023-09-07T09:13:47;19.80;99.90
48376;DHT22;34178;50.904;11.560;2023-09-07T09:16:13;19.90;99.90
48376;DHT22;34178;50.904;11.560;2023-09-07T09:18:53;20.00;99.90
48376;DHT22;34178;50.904;11.560;2023-09-07T09:21:20;20.10;99.90
48376;DHT22;34178;50.904;11.560;2023-09-07T09:23:48;20.30;99.90
48376;DHT22;34178;50.904;11.560;2023-09-07T09:26:15;20.30;99.90
48376;DHT22;34178;50.904;11.560;2023-09-07T09:28:42;20.40;99.90
48376;DHT22;34178;50.904;11.560;2023-09-07T09:31:10;20.50;99.90
48376;DHT22;34178;50.904;11.560;2023-09-07T09:33:39;20.60;99.90
48376;DHT22;34178;50.904;11.560;2023-09-07T09:36:06;20.70;99.90
48376;DHT22;34178;50.904;11.560;2023-09-07T09:38:32;20.80;99.90
48376;DHT22;34178;50.904;11.560;2023-09-07T09:40:58;20.90;99.90
48376;DHT22;34178;50.904;11.560;2023-09-07T09:43:25;21.00;99.90
48376;DHT22;34178;50.904;11.560;2023-09-07T09:45:52;21.10;99.90
48376;DHT22;34178;50.904;11.560;2023-09-07T09:48:22;21.20;99.90
48376;DHT22;34178;50.904;11.560;2023-09-07T09:50:48;21.40;99.90
48376;DHT22;34178;50.904;11.560;2023-09-07T09:53:15;21.40;99.90
48376;DHT22;34178;50.904;11.560;2023-09-07T09:55:45;21.40;99.90
48376;DHT22;34178;50.904;11.560;2023-09-07T09:58:13;21.50;99.90
48376;DHT22;34178;50.904;11.560;2023-09-07T10:00:44;21.60;99.90
48376;DHT22;34178;50.904;11.560;2023-09-07T10:05:38;21.90;99.90
48376;DHT22;34178;50.904;11.560;2023-09-07T10:08:11;22.00;99.90
48376;DHT22;34178;50.904;11.560;2023-09-07T10:10:38;22.20;99.90
48376;DHT22;34178;50.904;11.560;2023-09-07T10:13:04;22.40;99.90
48376;DHT22;34178;50.904;11.560;2023-09-07T10:15:31;22.50;99.90
48376;DHT22;34178;50.904;11.560;2023-09-07T10:18:12;22.60;99.90
48376;DHT22;34178;50.904;11.560;2023-09-07T10:20:57;22.70;99.90
48376;DHT22;34178;50.904;11.560;2023-09-07T10:26:00;22.80;99.90
48376;DHT22;34178;50.904;11.560;2023-09-07T10:28:26;23.00;99.90
48376;DHT22;34178;50.904;11.560;2023-09-07T10:30:59;23.00;99.90
48376;DHT22;34178;50.904;11.560;2023-09-07T10:33:25;23.00;99.90
48376;DHT22;34178;50.904;11.560;2023-09-07T10:35:51;23.10;99.90
48376;DHT22;34178;50.904;11.560;2023-09-07T10:38:17;23.20;99.90
48376;DHT22;34178;50.904;11.560;2023-09-07T10:40:45;23.30;99.90
48376;DHT22;34178;50.904;11.560;2023-09-07T10:43:11;23.50;99.90
48376;DHT22;34178;50.904;11.560;2023-09-07T10:45:37;23.70;99.90
48376;DHT22;34178;50.904;11.560;2023-09-07T10:48:03;23.90;99.90
48376;DHT22;34178;50.904;11.560;2023-09-07T10:50:29;23.90;99.90
48376;DHT22;34178;50.904;11.560;2023-09-07T10:52:55;24.00;99.90
48376;DHT22;34178;50.904;11.560;2023-09-07T10:55:21;24.10;99.90
48376;DHT22;34178;50.904;11.560;2023-09-07T10:57:47;24.10;99.90
48376;DHT22;34178;50.904;11.560;2023-09-07T11:00:14;24.10;99.90
48376;DHT22;34178;50.904;11.560;2023-09-07T11:02:41;24.10;99.90
48376;DHT22;34178;50.904;11.560;2023-09-07T11:05:07;24.20;99.90
48376;DHT22;34178;50.904;11.560;2023-09-07T11:07:34;24.30;99.70
48376;DHT22;34178;50.904;11.560;2023-09-07T11:10:00;24.40;99.90
48376;DHT22;34178;50.904;11.560;2023-09-07T11:12:26;24.50;99.30
48376;DHT22;34178;50.904;11.560;2023-09-07T11:14:53;24.70;98.90
48376;DHT22;34178;50.904;11.560;2023-09-07T11:17:25;24.90;98.10
48376;DHT22;34178;50.904;11.560;2023-09-07T11:19:54;25.10;97.80
48376;DHT22;34178;50.904;11.560;2023-09-07T11:22:20;25.20;99.50
48376;DHT22;34178;50.904;11.560;2023-09-07T11:24:46;25.20;99.60
48376;DHT22;34178;50.904;11.560;2023-09-07T11:27:12;25.20;99.80
48376;DHT22;34178;50.904;11.560;2023-09-07T11:29:37;25.30;98.70
48376;DHT22;34178;50.904;11.560;2023-09-07T11:32:11;25.30;99.20
48376;DHT22;34178;50.904;11.560;2023-09-07T11:34:48;25.40;98.30
48376;DHT22;34178;50.904;11.560;2023-09-07T11:37:24;25.50;98.50
48376;DHT22;34178;50.904;11.560;2023-09-07T11:39:50;25.50;97.80
48376;DHT22;34178;50.904;11.560;2023-09-07T11:42:16;25.60;96.40
48376;DHT22;34178;50.904;11.560;2023-09-07T11:44:41;25.70;97.30
48376;DHT22;34178;50.904;11.560;2023-09-07T11:47:07;25.80;97.80
48376;DHT22;34178;50.904;11.560;2023-09-07T11:49:33;25.90;97.20
48376;DHT22;34178;50.904;11.560;2023-09-07T11:51:59;26.00;96.00
48376;DHT22;34178;50.904;11.560;2023-09-07T11:54:25;26.10;97.40
48376;DHT22;34178;50.904;11.560;2023-09-07T11:56:50;26.10;96.70
48376;DHT22;34178;50.904;11.560;2023-09-07T11:59:16;26.20;96.00
48376;DHT22;34178;50.904;11.560;2023-09-07T12:01:44;26.40;96.20
48376;DHT22;34178;50.904;11.560;2023-09-07T12:04:10;26.70;96.10
48376;DHT22;34178;50.904;11.560;2023-09-07T12:06:38;27.30;95.60
48376;DHT22;34178;50.904;11.560;2023-09-07T12:09:05;28.10;92.30
48376;DHT22;34178;50.904;11.560;2023-09-07T12:11:42;29.10;91.80
48376;DHT22;34178;50.904;11.560;2023-09-07T12:14:09;30.50;92.70
48376;DHT22;34178;50.904;11.560;2023-09-07T12:16:34;31.60;90.20
48376;DHT22;34178;50.904;11.560;2023-09-07T12:19:00;32.50;86.40
48376;DHT22;34178;50.904;11.560;2023-09-07T12:21:26;33.40;84.00
48376;DHT22;34178;50.904;11.560;2023-09-07T12:23:51;34.30;79.90
48376;DHT22;34178;50.904;11.560;2023-09-07T12:26:17;35.00;78.50
48376;DHT22;34178;50.904;11.560;2023-09-07T12:28:44;35.60;77.00
48376;DHT22;34178;50.904;11.560;2023-09-07T12:31:10;36.30;75.20
48376;DHT22;34178;50.904;11.560;2023-09-07T12:33:37;36.90;72.10
48376;DHT22;34178;50.904;11.560;2023-09-07T12:36:03;37.40;72.30
48376;DHT22;34178;50.904;11.560;2023-09-07T12:38:30;37.80;70.40
48376;DHT22;34178;50.904;11.560;2023-09-07T12:40:56;38.10;68.70
48376;DHT22;34178;50.904;11.560;2023-09-07T12:43:21;38.40;67.90
48376;DHT22;34178;50.904;11.560;2023-09-07T12:45:47;38.70;66.70
48376;DHT22;34178;50.904;11.560;2023-09-07T12:48:13;39.10;64.90
48376;DHT22;34178;50.904;11.560;2023-09-07T12:50:38;39.40;63.40
48376;DHT22;34178;50.904;11.560;2023-09-07T12:53:08;39.70;63.10
48376;DHT22;34178;50.904;11.560;2023-09-07T12:55:34;40.00;61.40
48376;DHT22;34178;50.904;11.560;2023-09-07T12:58:00;40.00;62.50
48376;DHT22;34178;50.904;11.560;2023-09-07T13:00:28;40.20;62.50
48376;DHT22;34178;50.904;11.560;2023-09-07T13:02:54;40.50;59.30
48376;DHT22;34178;50.904;11.560;2023-09-07T13:05:21;40.60;59.90
48376;DHT22;34178;50.904;11.560;2023-09-07T13:07:47;40.80;60.60
48376;DHT22;34178;50.904;11.560;2023-09-07T13:10:13;41.20;57.30
48376;DHT22;34178;50.904;11.560;2023-09-07T13:12:39;41.30;59.10
48376;DHT22;34178;50.904;11.560;2023-09-07T13:15:05;41.40;55.90
48376;DHT22;34178;50.904;11.560;2023-09-07T13:17:30;41.70;58.10
48376;DHT22;34178;50.904;11.560;2023-09-07T13:19:56;42.10;57.70
48376;DHT22;34178;50.904;11.560;2023-09-07T13:22:22;42.30;57.30
48376;DHT22;34178;50.904;11.560;2023-09-07T13:24:48;42.60;56.10
48376;DHT22;34178;50.904;11.560;2023-09-07T13:27:15;42.80;54.80
48376;DHT22;34178;50.904;11.560;2023-09-07T13:29:41;43.00;54.60
48376;DHT22;34178;50.904;11.560;2023-09-07T13:32:07;43.30;54.30
48376;DHT22;34178;50.904;11.560;2023-09-07T13:34:33;43.50;54.00
48376;DHT22;34178;50.904;11.560;2023-09-07T13:36:58;43.40;55.60
48376;DHT22;34178;50.904;11.560;2023-09-07T13:39:24;43.40;54.80
48376;DHT22;34178;50.904;11.560;2023-09-07T13:41:50;43.70;54.00
48376;DHT22;34178;50.904;11.560;2023-09-07T13:44:16;44.00;54.00
48376;DHT22;34178;50.904;11.560;2023-09-07T13:46:43;43.90;53.00
48376;DHT22;34178;50.904;11.560;2023-09-07T13:49:10;44.00;53.40
48376;DHT22;34178;50.904;11.560;2023-09-07T13:51:36;44.10;53.10
48376;DHT22;34178;50.904;11.560;2023-09-07T13:54:05;44.40;52.00
48376;DHT22;34178;50.904;11.560;2023-09-07T13:56:32;44.30;52.60
48376;DHT22;34178;50.904;11.560;2023-09-07T13:58:58;44.30;52.90
48376;DHT22;34178;50.904;11.560;2023-09-07T14:01:24;44.50;52.10
48376;DHT22;34178;50.904;11.560;2023-09-07T14:03:50;44.70;51.80
48376;DHT22;34178;50.904;11.560;2023-09-07T14:06:16;45.20;51.70
48376;DHT22;34178;50.904;11.560;2023-09-07T14:08:43;45.30;51.30
48376;DHT22;34178;50.904;11.560;2023-09-07T14:11:10;45.20;50.40
48376;DHT22;34178;50.904;11.560;2023-09-07T14:13:36;45.30;50.50
48376;DHT22;34178;50.904;11.560;2023-09-07T14:16:01;45.40;51.50
48376;DHT22;34178;50.904;11.560;2023-09-07T14:18:28;45.80;49.40
48376;DHT22;34178;50.904;11.560;2023-09-07T14:20:53;45.90;49.80
48376;DHT22;34178;50.904;11.560;2023-09-07T14:23:23;46.00;48.70
48376;DHT22;34178;50.904;11.560;2023-09-07T14:25:54;46.30;50.00
48376;DHT22;34178;50.904;11.560;2023-09-07T14:28:19;46.40;48.80
48376;DHT22;34178;50.904;11.560;2023-09-07T14:30:45;46.70;48.10
48376;DHT22;34178;50.904;11.560;2023-09-07T14:33:11;47.00;48.80
48376;DHT22;34178;50.904;11.560;2023-09-07T14:35:37;47.10;48.90
48376;DHT22;34178;50.904;11.560;2023-09-07T14:38:03;47.00;49.60
48376;DHT22;34178;50.904;11.560;2023-09-07T14:40:28;47.40;47.80
48376;DHT22;34178;50.904;11.560;2023-09-07T14:42:54;47.40;48.00
48376;DHT22;34178;50.904;11.560;2023-09-07T14:45:23;47.90;47.70
48376;DHT22;34178;50.904;11.560;2023-09-07T14:47:50;48.50;47.50
48376;DHT22;34178;50.904;11.560;2023-09-07T14:50:16;48.90;47.10
48376;DHT22;34178;50.904;11.560;2023-09-07T14:52:41;48.90;46.90
48376;DHT22;34178;50.904;11.560;2023-09-07T14:55:09;49.40;48.20
48376;DHT22;34178;50.904;11.560;2023-09-07T14:57:35;50.10;46.60
48376;DHT22;34178;50.904;11.560;2023-09-07T15:00:01;50.60;47.00
48376;DHT22;34178;50.904;11.560;2023-09-07T15:02:29;50.80;46.10
48376;DHT22;34178;50.904;11.560;2023-09-07T15:04:54;51.10;45.70
48376;DHT22;34178;50.904;11.560;2023-09-07T15:07:20;51.20;44.80
48376;DHT22;34178;50.904;11.560;2023-09-07T15:09:48;51.00;45.50
48376;DHT22;34178;50.904;11.560;2023-09-07T15:12:14;51.50;45.00
48376;DHT22;34178;50.904;11.560;2023-09-07T15:14:40;52.20;44.10
48376;DHT22;34178;50.904;11.560;2023-09-07T15:17:05;52.80;44.10